Time;durP1;ratioP1;P1;durP2;ratioP2;P2;SDS_P1;SDS_P2;PMS_P1;PMS_P2;Temp;Humidity;BMP_temperature;BMP_pressure;BME280_temperature;BME280_humidity;BME280_pressure;Samples;Min_cycle;Max_cycle;Signal;HPM_P1;HPM_P2
2022/05/14 00:02:49;;;;;;;0.77;0.70;;;21.10;51.20;;;;;;6273559;28;20043;-68
2022/05/14 00:05:50;;;;;;;0.90;0.63;;;21.10;51.90;;;;;;6273713;28;20021;-68
2022/05/14 00:08:51;;;;;;;0.70;0.60;;;21.10;51.30;;;;;;6273425;28;20028;-66
2022/05/14 00:15:10;;;;;;;0.93;0.80;;;21.10;51.20;;;;;;6272301;28;20028;-67
2022/05/14 00:18:11;;;;;;;0.77;0.70;;;21.10;51.30;;;;;;6271963;28;20584;-67
2022/05/14 00:21:13;;;;;;;0.95;0.65;;;21.10;51.30;;;;;;6272332;28;20136;-67
2022/05/14 00:24:14;;;;;;;0.88;0.60;;;21.10;51.40;;;;;;6271835;28;20063;-68
2022/05/14 00:27:15;;;;;;;0.63;0.55;;;21.10;51.30;;;;;;6271859;28;20037;-67
2022/05/14 00:30:17;;;;;;;0.60;0.60;;;21.10;51.30;;;;;;6262378;28;20049;-67
2022/05/14 00:33:18;;;;;;;0.70;0.70;;;21.10;51.40;;;;;;6229441;28;20071;-67
2022/05/14 00:36:18;;;;;;;1.13;0.60;;;21.10;51.40;;;;;;6252476;28;20033;-67
2022/05/14 00:39:19;;;;;;;1.17;0.75;;;21.10;51.40;;;;;;6271729;28;20029;-67
2022/05/14 00:42:20;;;;;;;0.90;0.65;;;21.10;51.40;;;;;;6271647;28;20021;-67
2022/05/14 00:45:21;;;;;;;0.85;0.50;;;21.10;51.40;;;;;;6269878;28;20063;-67
2022/05/14 00:48:25;;;;;;;0.68;0.60;;;21.10;51.40;;;;;;6271861;28;20092;-67
2022/05/14 00:51:28;;;;;;;0.98;0.75;;;21.10;51.50;;;;;;6253317;28;20020;-67
2022/05/14 00:54:41;;;;;;;1.08;0.70;;;21.10;51.40;;;;;;6253499;28;20021;-67
2022/05/14 00:57:44;;;;;;;0.88;0.80;;;21.10;51.40;;;;;;6253123;28;20478;-67
2022/05/14 01:00:45;;;;;;;0.50;0.43;;;21.10;51.40;;;;;;6270942;28;20044;-67
2022/05/14 01:03:46;;;;;;;0.70;0.70;;;21.10;51.40;;;;;;6253375;28;20037;-67
2022/05/14 01:07:11;;;;;;;0.50;0.50;;;21.10;51.50;;;;;;6269794;28;20056;-67
2022/05/14 01:10:15;;;;;;;1.05;0.63;;;21.10;51.50;;;;;;6252721;28;20603;-66
2022/05/14 01:13:16;;;;;;;1.13;0.70;;;21.10;51.50;;;;;;6252214;28;20048;-67
2022/05/14 01:16:17;;;;;;;0.82;0.55;;;21.10;51.50;;;;;;6270754;28;20486;-66
2022/05/14 01:19:18;;;;;;;0.50;0.50;;;21.10;51.60;;;;;;6270968;28;20583;-67
2022/05/14 01:22:59;;;;;;;1.60;0.80;;;21.10;51.60;;;;;;6270829;28;20035;-67
2022/05/14 01:26:27;;;;;;;1.85;0.70;;;21.10;51.60;;;;;;6269857;28;20041;-66
2022/05/14 01:29:28;;;;;;;0.65;0.60;;;21.10;51.60;;;;;;6267518;28;20025;-69
2022/05/14 01:32:28;;;;;;;0.70;0.60;;;21.10;51.60;;;;;;6244328;28;20028;-67
2022/05/14 01:35:29;;;;;;;1.23;0.70;;;21.00;51.50;;;;;;6245625;28;20056;-67
2022/05/14 01:38:30;;;;;;;1.58;0.65;;;21.10;51.60;;;;;;6245626;28;20022;-66
2022/05/14 01:41:30;;;;;;;0.85;0.52;;;21.00;51.50;;;;;;6245645;28;20396;-67
2022/05/14 01:44:31;;;;;;;0.88;0.77;;;21.00;51.50;;;;;;6245383;28;20033;-67
2022/05/14 01:47:35;;;;;;;0.63;0.60;;;21.10;51.60;;;;;;6227538;28;20104;-67
2022/05/14 01:50:36;;;;;;;1.02;0.70;;;21.10;51.60;;;;;;6245459;28;20426;-67
2022/05/14 01:53:36;;;;;;;0.90;0.70;;;21.00;51.50;;;;;;6264576;28;20021;-66
2022/05/14 01:56:38;;;;;;;0.80;0.70;;;21.00;51.60;;;;;;6269958;28;20055;-67
2022/05/14 01:59:38;;;;;;;0.73;0.50;;;21.00;51.60;;;;;;6269607;28;20083;-66
2022/05/14 02:02:39;;;;;;;0.77;0.60;;;21.10;51.60;;;;;;6269600;28;20470;-67
2022/05/14 02:05:39;;;;;;;0.73;0.50;;;21.10;51.70;;;;;;6251630;28;20029;-66
2022/05/14 02:08:40;;;;;;;0.57;0.57;;;21.10;51.60;;;;;;6269316;28;20028;-67
2022/05/14 02:11:42;;;;;;;0.60;0.52;;;21.10;51.70;;;;;;6251748;28;20044;-66
2022/05/14 02:14:44;;;;;;;0.55;0.55;;;21.10;51.70;;;;;;6269292;28;20112;-67
2022/05/14 02:17:44;;;;;;;0.82;0.60;;;21.10;51.70;;;;;;6269319;28;20028;-67
2022/05/14 02:20:46;;;;;;;0.60;0.40;;;21.10;51.70;;;;;;6269094;28;20488;-66
2022/05/14 02:23:47;;;;;;;0.68;0.50;;;21.10;51.70;;;;;;6245008;28;20029;-66
2022/05/14 02:26:47;;;;;;;0.80;0.70;;;21.10;51.70;;;;;;6244506;28;20030;-67
2022/05/14 02:29:51;;;;;;;0.60;0.50;;;21.00;51.70;;;;;;6248431;28;20051;-66
2022/05/14 02:32:51;;;;;;;0.93;0.70;;;21.10;51.70;;;;;;6268637;28;20484;-67
2022/05/14 02:35:52;;;;;;;1.00;0.60;;;21.10;51.70;;;;;;6268909;28;20040;-66
2022/05/14 02:38:53;;;;;;;0.80;0.52;;;21.10;51.70;;;;;;6268931;28;20028;-67
2022/05/14 02:41:53;;;;;;;0.75;0.60;;;21.10;51.80;;;;;;6268816;28;20040;-67
2022/05/14 02:44:54;;;;;;;0.60;0.52;;;21.00;51.70;;;;;;6268821;28;20044;-67
2022/05/14 02:47:54;;;;;;;0.85;0.75;;;21.10;51.80;;;;;;6268472;28;20061;-67
2022/05/14 02:50:59;;;;;;;0.60;0.50;;;21.10;51.70;;;;;;6268646;28;20021;-66
2022/05/14 02:53:59;;;;;;;0.98;0.68;;;21.10;51.80;;;;;;6268237;28;20065;-67
2022/05/14 02:57:00;;;;;;;0.65;0.60;;;21.00;51.70;;;;;;6268510;28;20041;-67
2022/05/14 03:00:03;;;;;;;1.00;0.60;;;21.10;51.80;;;;;;6268086;28;20028;-67
2022/05/14 03:03:03;;;;;;;0.73;0.68;;;21.00;51.70;;;;;;6268404;28;20112;-67
2022/05/14 03:06:04;;;;;;;0.75;0.50;;;21.00;51.70;;;;;;6268086;28;20021;-66
2022/05/14 03:09:05;;;;;;;0.70;0.60;;;21.10;51.80;;;;;;6267900;28;20045;-68
2022/05/14 03:12:08;;;;;;;1.30;0.60;;;21.10;51.80;;;;;;6250248;28;20021;-67
2022/05/14 03:15:10;;;;;;;0.50;0.50;;;21.10;51.80;;;;;;6268307;28;20104;-67
2022/05/14 03:18:11;;;;;;;1.15;0.50;;;21.00;51.70;;;;;;6267779;28;20044;-66
2022/05/14 03:21:11;;;;;;;0.85;0.60;;;21.00;51.70;;;;;;6267904;28;20029;-66
2022/05/14 03:24:12;;;;;;;0.90;0.73;;;21.00;51.80;;;;;;6268062;28;20029;-67
2022/05/14 03:27:13;;;;;;;0.95;0.60;;;21.00;51.70;;;;;;6267897;28;20028;-66
2022/05/14 03:30:14;;;;;;;1.00;0.60;;;21.10;51.80;;;;;;6258611;28;20358;-66
2022/05/14 03:33:15;;;;;;;0.63;0.50;;;21.10;51.90;;;;;;6243162;28;20021;-66
2022/05/14 03:36:15;;;;;;;0.55;0.55;;;21.00;51.80;;;;;;6224988;28;20025;-66
2022/05/14 03:39:17;;;;;;;0.68;0.63;;;21.00;51.70;;;;;;6225428;28;20025;-67
2022/05/14 03:42:18;;;;;;;0.55;0.50;;;21.00;51.80;;;;;;6224867;28;20036;-66
2022/05/14 03:45:19;;;;;;;1.10;0.60;;;21.00;51.80;;;;;;6242984;28;20494;-66
2022/05/14 03:48:19;;;;;;;0.80;0.50;;;21.00;51.80;;;;;;6242986;28;20025;-66
2022/05/14 03:51:20;;;;;;;0.82;0.57;;;21.00;51.80;;;;;;6243600;28;20033;-66
2022/05/14 03:54:21;;;;;;;0.85;0.70;;;21.00;51.80;;;;;;6266125;28;20020;-66
2022/05/14 03:57:21;;;;;;;0.70;0.52;;;21.00;51.80;;;;;;6249662;28;20028;-66
2022/05/14 04:00:22;;;;;;;1.20;0.85;;;21.00;51.80;;;;;;6267287;28;20082;-67
2022/05/14 04:03:24;;;;;;;0.82;0.60;;;21.00;51.80;;;;;;6267598;28;20025;-66
2022/05/14 04:06:24;;;;;;;0.75;0.60;;;21.00;51.80;;;;;;6267326;28;20025;-67
2022/05/14 04:09:26;;;;;;;0.60;0.45;;;21.00;51.90;;;;;;6266866;28;20041;-66
2022/05/14 04:12:27;;;;;;;0.65;0.60;;;21.00;51.80;;;;;;6267271;28;20024;-67
2022/05/14 04:15:28;;;;;;;0.70;0.50;;;21.00;51.90;;;;;;6265730;28;20029;-67
2022/05/14 04:18:28;;;;;;;0.57;0.52;;;21.00;51.80;;;;;;6267538;28;20502;-67
2022/05/14 04:21:29;;;;;;;0.60;0.60;;;21.00;51.90;;;;;;6266956;28;20510;-67
2022/05/14 04:24:30;;;;;;;1.10;0.70;;;21.00;52.60;;;;;;6249248;28;20047;-68
2022/05/14 04:27:31;;;;;;;0.52;0.47;;;21.00;51.90;;;;;;6267055;28;20025;-67
2022/05/14 04:30:32;;;;;;;0.82;0.55;;;21.00;51.80;;;;;;6266979;28;20025;-67
2022/05/14 04:33:32;;;;;;;1.02;0.43;;;21.10;51.90;;;;;;6249031;28;20048;-67
2022/05/14 04:36:33;;;;;;;0.50;0.50;;;21.00;51.90;;;;;;6267213;28;20029;-67
2022/05/14 04:39:34;;;;;;;1.10;0.70;;;21.00;51.90;;;;;;6249274;28;20025;-67
2022/05/14 04:42:38;;;;;;;0.50;0.50;;;21.00;51.90;;;;;;6266837;28;20032;-67
2022/05/14 04:45:39;;;;;;;0.50;0.50;;;21.00;51.90;;;;;;6266653;28;20438;-67
2022/05/14 04:48:40;;;;;;;0.65;0.65;;;21.00;51.90;;;;;;6270279;28;20082;-67
2022/05/14 04:51:40;;;;;;;0.45;0.40;;;21.00;51.90;;;;;;6265009;28;20021;-67
2022/05/14 04:54:41;;;;;;;1.15;0.43;;;21.00;52.00;;;;;;6258889;28;20041;-67
2022/05/14 04:57:43;;;;;;;1.00;0.60;;;21.10;51.80;;;;;;6266467;28;20036;-66
2022/05/14 05:00:44;;;;;;;0.60;0.57;;;21.10;51.80;;;;;;6269177;28;20510;-66
2022/05/14 05:03:45;;;;;;;0.65;0.55;;;21.10;51.40;;;;;;6245102;28;20057;-67
2022/05/14 05:06:45;;;;;;;0.85;0.60;;;21.20;51.50;;;;;;6241672;28;20040;-67
2022/05/14 05:09:46;;;;;;;0.85;0.65;;;21.20;51.40;;;;;;6260197;28;20047;-66
2022/05/14 05:12:47;;;;;;;0.70;0.60;;;21.20;51.70;;;;;;6253495;28;20029;-66
2022/05/14 05:15:48;;;;;;;0.80;0.75;;;21.20;51.40;;;;;;6269474;28;20017;-67
2022/05/14 05:18:49;;;;;;;1.55;0.57;;;21.30;52.20;;;;;;6251785;28;20124;-66
2022/05/14 05:21:50;;;;;;;1.05;0.70;;;21.40;51.30;;;;;;6268860;28;20037;-67
2022/05/14 05:24:51;;;;;;;1.40;0.60;;;21.40;51.20;;;;;;6255942;28;20025;-67
2022/05/14 05:27:51;;;;;;;2.90;0.65;;;21.40;51.20;;;;;;6250408;28;20021;-67
2022/05/14 05:30:52;;;;;;;2.08;0.80;;;21.30;51.30;;;;;;6268201;28;20132;-68
2022/05/14 05:33:53;;;;;;;0.85;0.73;;;21.30;51.20;;;;;;6269338;28;20017;-66
2022/05/14 05:36:54;;;;;;;1.40;0.60;;;21.30;51.20;;;;;;6259280;28;20112;-67
2022/05/14 05:39:54;;;;;;;0.70;0.60;;;21.30;51.20;;;;;;6267303;28;20086;-67
2022/05/14 05:42:55;;;;;;;0.82;0.57;;;21.30;51.20;;;;;;6268421;28;20660;-68
2022/05/14 05:45:56;;;;;;;1.33;0.65;;;21.30;51.20;;;;;;6267942;28;20029;-66
2022/05/14 05:48:57;;;;;;;4.47;0.70;;;21.30;51.20;;;;;;6266939;28;20553;-67
2022/05/14 05:51:58;;;;;;;2.75;0.80;;;21.30;51.20;;;;;;6268345;28;20013;-67
2022/05/14 05:58:19;;;;;;;0.60;0.60;;;21.30;51.30;;;;;;6268542;28;20029;-67
2022/05/14 06:01:20;;;;;;;0.60;0.50;;;21.30;51.20;;;;;;6267787;28;20431;-67
2022/05/14 06:04:22;;;;;;;1.35;0.70;;;21.30;51.20;;;;;;6268380;28;20057;-67
2022/05/14 06:07:22;;;;;;;1.80;0.75;;;21.30;51.20;;;;;;6267275;28;20543;-66
2022/05/14 06:10:23;;;;;;;1.67;0.60;;;21.30;51.10;;;;;;6246549;28;20053;-67
2022/05/14 06:13:24;;;;;;;0.85;0.60;;;21.30;51.10;;;;;;6238353;28;20033;-68
2022/05/14 06:16:26;;;;;;;1.00;0.75;;;21.30;51.10;;;;;;6241255;28;20431;-67
2022/05/14 06:19:26;;;;;;;1.60;0.60;;;21.30;51.10;;;;;;6242956;28;20052;-67
2022/05/14 06:22:27;;;;;;;0.60;0.57;;;21.30;51.10;;;;;;6242377;28;20039;-67
2022/05/14 06:25:27;;;;;;;0.70;0.60;;;21.30;51.20;;;;;;6218437;28;20116;-67
2022/05/14 06:28:28;;;;;;;0.73;0.50;;;21.30;51.10;;;;;;6223009;28;20048;-66
2022/05/14 06:31:29;;;;;;;1.15;0.68;;;21.30;51.20;;;;;;6238258;28;20024;-67
2022/05/14 06:34:30;;;;;;;0.80;0.80;;;21.30;51.10;;;;;;6225027;28;20048;-67
2022/05/14 06:37:30;;;;;;;1.17;0.75;;;21.30;51.20;;;;;;6242447;28;20779;-67
2022/05/14 06:40:32;;;;;;;1.23;0.77;;;21.30;51.20;;;;;;6242681;28;20021;-68
2022/05/14 06:43:33;;;;;;;1.70;0.90;;;21.30;51.20;;;;;;6242389;28;20033;-67
2022/05/14 06:46:35;;;;;;;1.35;0.65;;;21.30;51.10;;;;;;6241904;28;20033;-67
2022/05/14 06:49:35;;;;;;;1.90;0.77;;;21.30;51.10;;;;;;6242206;28;20045;-67
2022/05/14 06:52:37;;;;;;;1.70;1.00;;;21.30;51.10;;;;;;6242222;28;20031;-67
2022/05/14 06:55:40;;;;;;;2.05;1.15;;;21.30;51.20;;;;;;6242268;28;20120;-68
2022/05/14 06:58:44;;;;;;;2.03;1.10;;;21.30;51.10;;;;;;6223702;28;20037;-67
2022/05/14 07:01:47;;;;;;;3.33;1.20;;;21.30;51.20;;;;;;6235967;28;20137;-66
2022/05/14 07:08:07;;;;;;;1.83;1.02;;;21.30;51.20;;;;;;6225158;28;20029;-67
2022/05/14 07:11:12;;;;;;;2.60;1.40;;;21.30;51.20;;;;;;6241391;28;20107;-67
2022/05/14 07:14:16;;;;;;;3.38;1.63;;;21.30;51.20;;;;;;6236732;28;20095;-67
2022/05/14 07:17:17;;;;;;;4.27;1.63;;;21.30;51.10;;;;;;6223641;28;20492;-68
2022/05/14 07:20:18;;;;;;;2.63;1.50;;;21.30;51.20;;;;;;6241893;28;20315;-67
2022/05/14 07:23:18;;;;;;;4.10;2.00;;;21.30;51.20;;;;;;6234091;28;20025;-67
2022/05/14 07:26:19;;;;;;;3.53;2.15;;;21.30;51.20;;;;;;6216637;28;20033;-68
2022/05/14 07:29:22;;;;;;;3.88;2.10;;;21.30;51.20;;;;;;6209466;28;20400;-67
2022/05/14 07:32:23;;;;;;;3.55;1.45;;;21.30;51.30;;;;;;6241749;28;20387;-68
2022/05/14 07:35:24;;;;;;;3.10;1.80;;;21.30;51.20;;;;;;6241839;28;20030;-68
2022/05/14 07:38:24;;;;;;;2.35;1.60;;;21.30;51.20;;;;;;6228374;28;20036;-67
2022/05/14 07:41:26;;;;;;;2.75;1.60;;;21.30;51.20;;;;;;6243265;28;20083;-67
2022/05/14 07:44:34;;;;;;;3.42;1.80;;;21.50;51.10;;;;;;6242617;28;20029;-66
2022/05/14 07:47:35;;;;;;;3.63;1.83;;;21.50;51.00;;;;;;6242421;28;20025;-66
2022/05/14 07:50:36;;;;;;;4.28;2.35;;;21.50;51.20;;;;;;6242687;28;20022;-68
2022/05/14 07:53:37;;;;;;;3.45;2.15;;;21.40;51.20;;;;;;6242346;28;20021;-67
2022/05/14 07:56:38;;;;;;;4.45;2.08;;;21.40;51.20;;;;;;6224457;28;20037;-67
2022/05/14 07:59:39;;;;;;;3.95;1.92;;;21.40;51.20;;;;;;6243008;28;20542;-67
2022/05/14 08:02:43;;;;;;;3.95;2.20;;;21.40;51.20;;;;;;6242567;28;20504;-67
2022/05/14 08:05:44;;;;;;;4.55;2.20;;;21.40;51.20;;;;;;6242832;28;20396;-67
2022/05/14 08:08:45;;;;;;;4.43;1.92;;;21.40;51.20;;;;;;6234668;28;20029;-67
2022/05/14 08:11:46;;;;;;;2.60;1.52;;;21.40;51.20;;;;;;6242781;28;20055;-67
2022/05/14 08:14:47;;;;;;;3.53;1.95;;;21.40;51.30;;;;;;6242990;28;20017;-67
2022/05/14 08:17:48;;;;;;;3.63;1.67;;;21.40;51.30;;;;;;6242978;28;20029;-67
2022/05/14 08:20:50;;;;;;;3.97;1.88;;;21.40;51.20;;;;;;6243516;28;20504;-67
2022/05/14 08:27:11;;;;;;;4.55;1.70;;;21.40;51.30;;;;;;6247641;28;20448;-67
2022/05/14 08:30:19;;;;;;;3.75;1.80;;;21.40;51.30;;;;;;6247123;28;20033;-67
2022/05/14 08:33:19;;;;;;;3.15;1.90;;;21.40;51.30;;;;;;6229639;28;20056;-66
2022/05/14 08:36:20;;;;;;;3.25;1.60;;;21.40;51.30;;;;;;6229487;28;20476;-66
2022/05/14 08:39:21;;;;;;;3.80;1.80;;;21.40;51.30;;;;;;6247543;28;20112;-67
2022/05/14 08:42:22;;;;;;;3.75;1.92;;;21.40;51.30;;;;;;6247234;28;20018;-67
2022/05/14 08:45:25;;;;;;;2.45;1.50;;;21.40;51.30;;;;;;6247135;28;20030;-67
2022/05/14 08:48:37;;;;;;;3.38;1.52;;;21.40;51.30;;;;;;6247154;28;20029;-68
2022/05/14 08:51:45;;;;;;;2.42;1.50;;;21.30;51.30;;;;;;6246870;28;20022;-67
2022/05/14 08:54:45;;;;;;;2.72;1.63;;;21.40;51.40;;;;;;6229040;28;20562;-67
2022/05/14 08:58:18;;;;;;;1.75;1.50;;;21.30;51.40;;;;;;6245923;28;20025;-68
2022/05/14 09:01:24;;;;;;;2.40;1.55;;;21.30;51.40;;;;;;6202371;28;20092;-68
2022/05/14 09:04:25;;;;;;;3.28;1.70;;;21.30;51.40;;;;;;6246712;28;20017;-67
2022/05/14 09:07:25;;;;;;;2.80;1.77;;;21.30;51.50;;;;;;6247101;28;20095;-67
2022/05/14 09:10:39;;;;;;;2.28;1.40;;;21.30;51.50;;;;;;6229333;28;20045;-68
2022/05/14 09:13:46;;;;;;;2.83;1.10;;;21.30;51.50;;;;;;6246390;28;20022;-67
2022/05/14 09:16:51;;;;;;;2.22;1.50;;;21.30;51.50;;;;;;6246447;28;20087;-68
2022/05/14 09:19:53;;;;;;;3.40;1.63;;;21.30;51.60;;;;;;6246144;28;20495;-67
2022/05/14 09:22:56;;;;;;;2.45;1.40;;;21.30;51.70;;;;;;6245812;28;20535;-68
2022/05/14 09:26:08;;;;;;;3.38;1.60;;;21.30;51.70;;;;;;6245850;28;20033;-68
2022/05/14 09:29:40;;;;;;;2.58;1.40;;;21.30;51.70;;;;;;6245456;28;20017;-67
2022/05/14 09:32:44;;;;;;;2.25;1.33;;;21.30;51.70;;;;;;6200903;28;20073;-67
2022/05/14 09:35:54;;;;;;;1.90;1.33;;;21.30;51.70;;;;;;6221174;28;20030;-68
2022/05/14 09:39:06;;;;;;;3.15;1.67;;;21.30;51.80;;;;;;6221222;28;20026;-67
2022/05/14 09:42:23;;;;;;;1.95;1.40;;;21.30;51.90;;;;;;6220998;28;20030;-68
2022/05/14 09:45:32;;;;;;;1.92;1.25;;;21.20;51.80;;;;;;6203775;28;20069;-67
2022/05/14 09:48:36;;;;;;;2.28;1.30;;;21.20;51.80;;;;;;6221159;28;20022;-67
2022/05/14 09:52:00;;;;;;;3.97;1.97;;;21.20;51.90;;;;;;6206687;28;20049;-67
2022/05/14 09:55:04;;;;;;;1.88;1.40;;;21.20;51.80;;;;;;6245119;28;20548;-67
2022/05/14 09:58:17;;;;;;;2.42;1.60;;;21.30;51.90;;;;;;6244220;28;20022;-67
2022/05/14 10:01:23;;;;;;;2.80;1.58;;;21.20;51.90;;;;;;6227073;28;20677;-67
2022/05/14 10:05:08;;;;;;;2.20;1.40;;;21.20;51.90;;;;;;6245135;28;20092;-67
2022/05/14 10:08:34;;;;;;;2.35;1.63;;;21.20;52.00;;;;;;6168984;28;20054;-68
2022/05/14 10:11:39;;;;;;;2.90;1.85;;;21.20;52.00;;;;;;6177800;28;20571;-67
2022/05/14 10:14:42;;;;;;;;;;;21.20;52.00;;;;;;6227515;28;20083;-67
2022/05/14 10:18:12;;;;;;;1.83;1.30;;;21.20;52.00;;;;;;6244790;28;20533;-68
2022/05/14 10:21:31;;;;;;;2.45;1.58;;;21.20;52.00;;;;;;6226944;28;20056;-67
2022/05/14 10:28:36;;;;;;;2.50;1.50;;;21.20;52.10;;;;;;6244667;28;20052;-67
2022/05/14 10:31:51;;;;;;;2.13;1.30;;;21.20;52.10;;;;;;6224061;28;20393;-67
2022/05/14 10:35:06;;;;;;;2.20;1.45;;;21.20;52.10;;;;;;6219688;28;20034;-67
2022/05/14 10:38:14;;;;;;;2.05;1.40;;;21.20;52.10;;;;;;6218764;28;20088;-67
2022/05/14 10:41:31;;;;;;;3.00;1.55;;;21.20;52.20;;;;;;6198889;28;20143;-66
2022/05/14 10:45:09;;;;;;;2.35;1.40;;;21.20;52.20;;;;;;6234930;28;20057;-67
2022/05/14 10:48:24;;;;;;;1.95;1.30;;;21.30;52.20;;;;;;6212629;28;20069;-67
2022/05/14 10:51:29;;;;;;;1.92;1.58;;;21.30;51.90;;;;;;6241898;28;20021;-67
2022/05/14 10:54:33;;;;;;;2.08;1.60;;;21.30;51.90;;;;;;6224210;28;20124;-68
2022/05/14 10:57:42;;;;;;;1.33;1.10;;;21.30;51.80;;;;;;6240951;28;20017;-67
2022/05/14 11:00:44;;;;;;;2.35;1.48;;;21.30;51.80;;;;;;6241908;28;20038;-67
2022/05/14 11:03:53;;;;;;;2.85;1.67;;;21.30;51.80;;;;;;6241288;28;20101;-68
2022/05/14 11:06:56;;;;;;;2.45;1.40;;;21.30;51.80;;;;;;6242328;28;20026;-67
2022/05/14 11:10:27;;;;;;;3.75;1.65;;;21.30;51.70;;;;;;6215714;28;20046;-68
2022/05/14 11:13:28;;;;;;;3.08;1.80;;;21.30;51.70;;;;;;6207302;28;20022;-67
2022/05/14 11:16:45;;;;;;;2.22;1.60;;;21.30;51.70;;;;;;6192981;28;20027;-68
2022/05/14 11:19:45;;;;;;;2.92;1.52;;;21.30;51.60;;;;;;6192598;28;20031;-67
2022/05/14 11:22:52;;;;;;;1.90;1.35;;;21.30;51.60;;;;;;6194641;28;20049;-67
2022/05/14 11:26:17;;;;;;;1.98;1.60;;;21.30;51.70;;;;;;6192272;28;20409;-67
2022/05/14 11:29:25;;;;;;;2.17;1.60;;;21.30;51.70;;;;;;6194032;28;20073;-67
2022/05/14 11:32:26;;;;;;;2.33;1.48;;;21.30;51.70;;;;;;6215000;28;20105;-67
2022/05/14 11:35:42;;;;;;;2.05;1.38;;;21.30;51.60;;;;;;6214433;28;20045;-68
2022/05/14 11:38:47;;;;;;;2.20;1.40;;;21.30;51.70;;;;;;6207743;28;20027;-68
2022/05/14 11:41:50;;;;;;;2.22;1.50;;;21.30;51.60;;;;;;6192577;28;20026;-68
2022/05/14 11:44:56;;;;;;;2.95;1.55;;;21.30;51.60;;;;;;6192208;28;20073;-66
2022/05/14 11:48:04;;;;;;;1.70;1.20;;;21.30;51.70;;;;;;6206818;28;20037;-67
2022/05/14 11:51:25;;;;;;;3.22;1.65;;;21.30;51.60;;;;;;6216492;28;20445;-67
2022/05/14 11:54:38;;;;;;;2.05;1.40;;;21.30;51.70;;;;;;6191177;28;20043;-65
2022/05/14 11:57:49;;;;;;;1.95;1.55;;;21.30;51.60;;;;;;6195996;28;20028;-66
2022/05/14 12:00:52;;;;;;;3.00;1.70;;;21.30;51.60;;;;;;6197446;28;20034;-66
2022/05/14 12:03:54;;;;;;;2.08;1.40;;;21.30;51.60;;;;;;6196708;28;20554;-67
2022/05/14 12:07:24;;;;;;;1.38;1.17;;;21.30;51.60;;;;;;6197353;28;20022;-67
2022/05/14 12:10:50;;;;;;;1.95;1.45;;;21.30;51.70;;;;;;6195435;28;20072;-68
2022/05/14 12:14:00;;;;;;;;;;;21.30;51.60;;;;;;6204177;28;20079;-66
2022/05/14 12:17:04;;;;;;;1.85;1.50;;;21.40;51.80;;;;;;6208898;28;20032;-68
2022/05/14 12:20:05;;;;;;;1.88;1.35;;;21.40;52.20;;;;;;6221673;28;20123;-69
2022/05/14 12:23:16;;;;;;;1.48;1.20;;;21.30;50.30;;;;;;6236036;28;20130;-68
2022/05/14 12:26:27;;;;;;;2.47;1.30;;;21.30;49.60;;;;;;6221258;28;20021;-69
2022/05/14 12:29:31;;;;;;;1.65;1.38;;;21.40;48.90;;;;;;6221091;28;20026;-68
2022/05/14 12:35:57;;;;;;;1.42;1.05;;;21.50;48.40;;;;;;6221089;28;20033;-69
2022/05/14 12:38:59;;;;;;;2.75;1.48;;;21.60;48.20;;;;;;6220804;28;20033;-69
2022/05/14 12:42:01;;;;;;;1.80;1.30;;;21.70;48.00;;;;;;6220535;28;20049;-68
2022/05/14 12:45:04;;;;;;;4.15;1.30;;;21.80;48.00;;;;;;6219243;28;20424;-67
2022/05/14 12:48:07;;;;;;;2.40;1.77;;;21.90;47.50;;;;;;6219404;28;20034;-68
2022/05/14 12:51:08;;;;;;;2.42;1.38;;;21.90;47.50;;;;;;6220947;28;20121;-68
2022/05/14 12:54:18;;;;;;;2.38;1.58;;;21.90;47.50;;;;;;6219770;28;20033;-67
2022/05/14 12:57:20;;;;;;;4.22;1.80;;;21.90;47.20;;;;;;6236094;28;20508;-67
2022/05/14 13:00:22;;;;;;;1.55;1.20;;;22.00;47.30;;;;;;6220481;28;20032;-67
2022/05/14 13:04:00;;;;;;;2.60;1.50;;;22.00;47.30;;;;;;6220155;28;20098;-67
2022/05/14 13:07:02;;;;;;;1.95;1.33;;;22.00;47.20;;;;;;6219031;28;20030;-67
2022/05/14 13:10:04;;;;;;;2.08;1.60;;;22.00;47.10;;;;;;6231190;28;20049;-67
2022/05/14 13:13:08;;;;;;;5.78;1.27;;;22.10;47.00;;;;;;6226480;28;20144;-67
2022/05/14 13:16:14;;;;;;;5.47;1.40;;;22.00;46.90;;;;;;6244516;28;20026;-67
2022/05/14 13:19:33;;;;;;;2.15;1.30;;;22.00;46.90;;;;;;6226548;28;20466;-68
2022/05/14 13:22:38;;;;;;;2.90;1.63;;;22.00;46.80;;;;;;6243339;28;20499;-67
2022/05/14 13:25:40;;;;;;;5.95;1.55;;;22.00;46.80;;;;;;6226421;28;20030;-67
2022/05/14 13:28:44;;;;;;;2.55;1.58;;;22.00;46.80;;;;;;6226583;28;20651;-67
2022/05/14 13:31:48;;;;;;;1.77;1.23;;;22.00;46.70;;;;;;6243728;28;20021;-67
2022/05/14 13:38:09;;;;;;;2.25;1.55;;;22.00;46.60;;;;;;6244099;28;20037;-68
2022/05/14 13:41:23;;;;;;;2.28;1.35;;;22.00;46.50;;;;;;6244009;28;20018;-68
2022/05/14 13:44:26;;;;;;;2.55;1.60;;;22.00;47.10;;;;;;6243519;28;20665;-67
2022/05/14 13:47:27;;;;;;;2.72;1.60;;;22.00;46.40;;;;;;6225852;28;20104;-67
2022/05/14 13:50:33;;;;;;;2.53;1.73;;;22.00;46.40;;;;;;6243463;28;20562;-67
2022/05/14 13:53:38;;;;;;;2.72;1.67;;;22.00;46.20;;;;;;6243117;28;20028;-67
2022/05/14 13:56:39;;;;;;;3.08;1.98;;;22.00;46.30;;;;;;6225863;28;20048;-68
2022/05/14 13:59:41;;;;;;;3.75;2.10;;;22.00;46.20;;;;;;6226098;28;20052;-68
2022/05/14 14:02:43;;;;;;;2.92;1.90;;;22.00;46.20;;;;;;6242868;28;20053;-67
2022/05/14 14:05:46;;;;;;;4.70;2.17;;;22.00;46.30;;;;;;6242664;28;20025;-67
2022/05/14 14:08:47;;;;;;;3.90;2.05;;;22.00;46.10;;;;;;6242784;28;20052;-68
2022/05/14 14:11:49;;;;;;;2.92;1.77;;;22.10;46.00;;;;;;6242655;28;20063;-67
2022/05/14 14:14:50;;;;;;;4.13;1.95;;;22.10;46.20;;;;;;6242596;28;20027;-67
2022/05/14 14:17:50;;;;;;;5.03;2.17;;;22.10;46.10;;;;;;6225383;28;20022;-68
2022/05/14 14:20:56;;;;;;;4.85;2.00;;;22.10;46.00;;;;;;6242212;28;20096;-67
2022/05/14 14:23:57;;;;;;;3.95;2.38;;;22.10;45.90;;;;;;6233993;28;20022;-67
2022/05/14 14:26:59;;;;;;;8.10;3.22;;;22.20;45.80;;;;;;6242934;28;20030;-67
2022/05/14 14:30:00;;;;;;;5.75;2.80;;;22.30;45.90;;;;;;6242167;28;20025;-66
2022/05/14 14:33:01;;;;;;;7.80;2.55;;;22.30;45.90;;;;;;6242003;28;20076;-67
2022/05/14 14:36:03;;;;;;;8.00;3.35;;;22.40;45.60;;;;;;6242178;28;20443;-67
2022/05/14 14:39:06;;;;;;;6.57;3.10;;;22.40;45.50;;;;;;6242702;28;20029;-67
2022/05/14 14:42:09;;;;;;;7.85;3.35;;;22.30;45.90;;;;;;6242058;28;20025;-68
2022/05/14 14:45:11;;;;;;;7.25;3.22;;;22.20;45.90;;;;;;6224167;28;20029;-68
2022/05/14 14:48:13;;;;;;;7.68;3.50;;;22.20;45.80;;;;;;6242479;28;20604;-68
2022/05/14 14:51:14;;;;;;;7.78;3.25;;;22.20;45.90;;;;;;6242376;28;20396;-68
2022/05/14 14:54:15;;;;;;;9.05;3.72;;;22.20;46.00;;;;;;6241647;28;20100;-69
2022/05/14 14:57:15;;;;;;;8.18;3.55;;;22.10;45.90;;;;;;6241090;28;20075;-69
2022/05/14 15:00:19;;;;;;;6.82;3.60;;;22.10;45.80;;;;;;6240878;28;20061;-69
2022/05/14 15:03:29;;;;;;;8.13;3.47;;;22.10;45.80;;;;;;6241747;28;20036;-70
2022/05/14 15:06:30;;;;;;;6.32;2.92;;;22.10;45.70;;;;;;6224573;28;20025;-69
2022/05/14 15:09:31;;;;;;;7.53;3.35;;;22.10;45.60;;;;;;6240425;28;20054;-69
2022/05/14 15:12:33;;;;;;;10.00;3.50;;;22.10;45.60;;;;;;6241544;28;20026;-69
2022/05/14 15:15:33;;;;;;;7.80;3.75;;;22.10;45.70;;;;;;6240440;28;20022;-69
2022/05/14 15:18:35;;;;;;;10.43;3.72;;;22.10;45.60;;;;;;6242030;28;20458;-69
2022/05/14 15:21:36;;;;;;;10.20;3.47;;;22.10;45.60;;;;;;6241688;28;20021;-69
2022/05/14 15:24:37;;;;;;;5.82;2.70;;;22.10;45.70;;;;;;6221857;28;20026;-69
2022/05/14 15:27:38;;;;;;;7.97;3.20;;;22.10;45.70;;;;;;6215757;28;20038;-69
2022/05/14 15:30:39;;;;;;;8.98;3.67;;;22.10;45.50;;;;;;6229213;28;20018;-70
2022/05/14 15:33:41;;;;;;;7.13;3.10;;;22.10;45.60;;;;;;6240693;28;20532;-70
2022/05/14 15:36:41;;;;;;;10.43;3.70;;;22.00;45.60;;;;;;6215627;28;20043;-69
2022/05/14 15:39:42;;;;;;;8.13;3.20;;;22.10;45.60;;;;;;6199788;28;20030;-69
2022/05/14 15:42:51;;;;;;;9.45;3.47;;;22.10;45.60;;;;;;6216846;28;20488;-69
2022/05/14 15:45:58;;;;;;;6.97;3.03;;;22.10;45.70;;;;;;6215934;28;20091;-68
2022/05/14 15:49:03;;;;;;;9.55;4.18;;;22.20;45.20;;;;;;6240517;28;20029;-68
2022/05/14 15:52:09;;;;;;;8.48;3.92;;;22.20;45.30;;;;;;6241121;28;20036;-68
2022/05/14 15:55:16;;;;;;;8.45;4.00;;;22.10;45.30;;;;;;6223656;28;20567;-68
2022/05/14 15:58:17;;;;;;;7.85;3.67;;;22.10;45.30;;;;;;6241867;28;20172;-68
2022/05/14 16:01:17;;;;;;;9.05;4.00;;;22.10;45.20;;;;;;6223747;28;20516;-68
2022/05/14 16:04:18;;;;;;;12.27;5.13;;;22.30;44.60;;;;;;6240628;28;20034;-68
2022/05/14 16:07:19;;;;;;;13.75;5.15;;;22.30;45.00;;;;;;6241247;28;20438;-68
2022/05/14 16:17:00;;;;;;;11.13;4.90;;;22.20;44.80;;;;;;6241453;28;20112;-68
2022/05/14 16:20:01;;;;;;;14.88;6.00;;;22.30;44.90;;;;;;6241216;28;20044;-68
2022/05/14 16:23:02;;;;;;;12.88;5.18;;;22.30;45.00;;;;;;6239618;28;20431;-68
2022/05/14 16:26:03;;;;;;;15.15;6.03;;;22.30;45.10;;;;;;6241006;28;20031;-68
2022/05/14 16:29:08;;;;;;;11.35;5.70;;;22.20;45.00;;;;;;6241307;28;20476;-69
2022/05/14 16:32:09;;;;;;;;;;;22.20;44.90;;;;;;6241572;28;20068;-69